Time;durP1;ratioP1;P1;durP2;ratioP2;P2;SDS_P1;SDS_P2;PMS_P1;PMS_P2;Temp;Humidity;BMP_temperature;BMP_pressure;BME280_temperature;BME280_humidity;BME280_pressure;Samples;Min_cycle;Max_cycle;Signal;HPM_P1;HPM_P2
2021/05/22 00:02:08;;;;;;;3.95;2.08;;;15.20;98.70;;;;;;5054642;28;20401;-72
2021/05/22 00:04:34;;;;;;;3.13;2.50;;;15.20;99.50;;;;;;5072653;28;20029;-71
2021/05/22 00:06:59;;;;;;;4.03;2.00;;;15.10;99.30;;;;;;5072607;28;20078;-71
2021/05/22 00:09:25;;;;;;;5.18;1.92;;;15.10;99.30;;;;;;5072534;28;20028;-73
2021/05/22 00:11:51;;;;;;;2.38;2.15;;;15.00;99.90;;;;;;5072537;28;20032;-71
2021/05/22 00:14:17;;;;;;;5.38;2.40;;;14.90;99.70;;;;;;5072504;28;20073;-70
2021/05/22 00:16:43;;;;;;;2.60;2.15;;;14.90;99.90;;;;;;5072052;28;20052;-70
2021/05/22 00:19:09;;;;;;;4.13;1.90;;;15.00;99.90;;;;;;5054561;28;20029;-73
2021/05/22 00:21:35;;;;;;;3.00;2.05;;;14.90;99.90;;;;;;5072491;28;20047;-70
2021/05/22 00:24:01;;;;;;;3.20;2.17;;;14.90;99.90;;;;;;5072451;28;20044;-70
2021/05/22 00:26:27;;;;;;;5.30;2.42;;;14.90;99.90;;;;;;5054183;28;20028;-70
2021/05/22 00:28:56;;;;;;;2.70;2.30;;;14.90;99.90;;;;;;5072323;28;20032;-72
2021/05/22 00:31:22;;;;;;;3.05;2.42;;;14.80;99.90;;;;;;5072386;28;20032;-73
2021/05/22 00:33:47;;;;;;;5.70;3.35;;;14.70;99.90;;;;;;5072337;28;20032;-72
2021/05/22 00:36:13;;;;;;;6.25;3.38;;;14.70;99.90;;;;;;5054346;28;20031;-71
2021/05/22 00:38:39;;;;;;;4.30;3.40;;;14.70;99.90;;;;;;5054210;28;20036;-70
2021/05/22 00:41:05;;;;;;;5.88;3.42;;;14.70;99.90;;;;;;5054349;28;20029;-71
2021/05/22 00:43:31;;;;;;;6.05;3.72;;;14.70;99.90;;;;;;5055245;28;20468;-71
2021/05/22 00:45:57;;;;;;;8.57;5.88;;;14.70;99.90;;;;;;5075514;28;20054;-70
2021/05/22 00:48:23;;;;;;;14.50;5.80;;;14.60;99.90;;;;;;5075732;28;20037;-74
2021/05/22 00:50:52;;;;;;;9.85;6.00;;;14.60;99.90;;;;;;5057742;28;20033;-74
2021/05/22 00:53:19;;;;;;;8.52;5.45;;;14.60;99.90;;;;;;5075680;28;20028;-72
2021/05/22 00:55:45;;;;;;;15.55;6.72;;;14.60;99.90;;;;;;5075648;28;20499;-70
2021/05/22 00:58:11;;;;;;;10.02;7.00;;;14.60;99.90;;;;;;5057571;28;20071;-71
2021/05/22 01:00:44;;;;;;;14.75;8.88;;;14.60;99.90;;;;;;5075862;28;20052;-71
2021/05/22 01:03:19;;;;;;;15.00;7.07;;;14.60;99.90;;;;;;5057596;28;20477;-73
2021/05/22 01:05:47;;;;;;;9.15;6.30;;;14.60;99.90;;;;;;5075740;28;20052;-71
2021/05/22 01:08:18;;;;;;;15.93;6.78;;;14.60;99.90;;;;;;5057333;28;20033;-73
2021/05/22 01:10:59;;;;;;;11.40;6.35;;;14.50;99.90;;;;;;5057505;28;20077;-71
2021/05/22 01:13:28;;;;;;;16.10;6.07;;;14.50;99.90;;;;;;5076832;28;20404;-71
2021/05/22 01:15:55;;;;;;;10.13;6.20;;;14.40;99.90;;;;;;5076804;28;20063;-72
2021/05/22 01:18:22;;;;;;;18.80;4.75;;;14.40;99.90;;;;;;5075188;28;20028;-70
2021/05/22 01:21:01;;;;;;;18.27;5.40;;;14.40;99.90;;;;;;5057327;28;20124;-70
2021/05/22 01:23:30;;;;;;;9.52;5.20;;;14.30;99.90;;;;;;5057255;28;20024;-71
2021/05/22 01:25:56;;;;;;;9.70;4.75;;;14.30;99.90;;;;;;5057087;28;20127;-72
2021/05/22 01:28:23;;;;;;;19.70;5.15;;;14.30;99.90;;;;;;5057038;28;20075;-70
2021/05/22 01:30:50;;;;;;;11.73;4.65;;;14.30;99.90;;;;;;5074737;28;20444;-70
2021/05/22 01:33:18;;;;;;;9.75;4.38;;;14.30;99.90;;;;;;5057008;28;20385;-71
2021/05/22 01:35:44;;;;;;;17.30;5.40;;;14.30;99.90;;;;;;5075163;28;20028;-73
2021/05/22 01:38:10;;;;;;;8.98;4.07;;;14.30;99.90;;;;;;5074591;28;20082;-70
2021/05/22 01:40:36;;;;;;;8.07;4.13;;;14.20;99.90;;;;;;5074789;28;20028;-72
2021/05/22 01:43:03;;;;;;;6.97;4.03;;;14.20;99.90;;;;;;5074702;28;20027;-71
2021/05/22 01:45:43;;;;;;;6.97;4.10;;;14.20;99.90;;;;;;5074703;28;20025;-71
2021/05/22 01:48:14;;;;;;;7.38;3.75;;;14.20;99.90;;;;;;5056328;28;20028;-72
2021/05/22 01:50:43;;;;;;;5.75;3.75;;;14.10;99.90;;;;;;5074693;28;20071;-72
2021/05/22 01:53:12;;;;;;;7.78;4.15;;;14.10;99.90;;;;;;5056573;28;20439;-72
2021/05/22 01:55:38;;;;;;;5.05;3.50;;;14.10;99.90;;;;;;5055994;28;20032;-70
2021/05/22 01:58:06;;;;;;;6.20;3.65;;;14.10;99.90;;;;;;5074421;28;20028;-72
2021/05/22 02:00:32;;;;;;;6.63;3.15;;;14.20;99.90;;;;;;5074135;28;20752;-70
2021/05/22 02:03:09;;;;;;;6.20;3.67;;;14.20;99.90;;;;;;5056392;28;20032;-69
2021/05/22 02:05:36;;;;;;;5.35;3.38;;;14.20;99.90;;;;;;5056359;28;20036;-70
2021/05/22 02:08:04;;;;;;;7.90;3.17;;;14.20;99.90;;;;;;5074113;28;20373;-72
2021/05/22 02:10:30;;;;;;;7.18;3.90;;;14.20;99.90;;;;;;5056382;28;20035;-72
2021/05/22 02:12:58;;;;;;;4.63;2.67;;;14.20;99.90;;;;;;5055927;28;20025;-73
2021/05/22 02:15:27;;;;;;;4.15;3.25;;;14.10;99.90;;;;;;5073898;28;20493;-72
2021/05/22 02:17:55;;;;;;;8.57;3.10;;;14.10;99.90;;;;;;5074064;28;20028;-71
2021/05/22 02:20:23;;;;;;;4.30;3.20;;;14.10;99.90;;;;;;5074086;28;20032;-69
2021/05/22 02:22:51;;;;;;;6.03;2.92;;;14.10;99.90;;;;;;5074011;28;20028;-71
2021/05/22 02:25:18;;;;;;;4.93;2.92;;;14.10;99.90;;;;;;5074212;28;20072;-72
2021/05/22 02:27:44;;;;;;;9.05;3.05;;;14.10;99.90;;;;;;5055980;28;20492;-70
2021/05/22 02:30:13;;;;;;;10.73;3.28;;;14.10;99.90;;;;;;5073802;28;20033;-71
2021/05/22 02:32:41;;;;;;;6.43;2.50;;;14.10;99.90;;;;;;5055894;28;20036;-71
2021/05/22 02:35:09;;;;;;;4.55;2.88;;;14.10;99.90;;;;;;5073657;28;20021;-74
2021/05/22 02:37:36;;;;;;;10.35;3.78;;;14.10;99.90;;;;;;5055769;28;20098;-72
2021/05/22 02:40:24;;;;;;;6.45;3.00;;;14.00;99.90;;;;;;5073774;28;20079;-71
2021/05/22 02:43:11;;;;;;;7.72;3.40;;;14.00;99.90;;;;;;5073648;28;20032;-72
2021/05/22 02:45:40;;;;;;;21.65;3.95;;;14.10;99.90;;;;;;5073415;28;20020;-72
2021/05/22 02:48:11;;;;;;;9.32;3.60;;;14.00;99.90;;;;;;5055382;28;20094;-70
2021/05/22 02:50:38;;;;;;;4.90;3.13;;;14.00;99.90;;;;;;5055579;28;20060;-72
2021/05/22 02:53:04;;;;;;;12.00;4.07;;;14.00;99.90;;;;;;5055438;28;20376;-70
2021/05/22 02:55:32;;;;;;;7.47;3.63;;;14.00;99.90;;;;;;5055451;28;20060;-71
2021/05/22 02:57:58;;;;;;;6.47;3.85;;;14.00;99.90;;;;;;5055342;28;20077;-71
2021/05/22 03:00:25;;;;;;;8.90;4.07;;;14.00;99.90;;;;;;5073315;28;20043;-71
2021/05/22 03:02:51;;;;;;;8.77;4.18;;;14.00;99.90;;;;;;5055300;28;20465;-72
2021/05/22 03:05:19;;;;;;;10.00;4.60;;;14.00;99.90;;;;;;5072800;28;20150;-71
2021/05/22 03:07:45;;;;;;;8.93;4.90;;;14.00;99.90;;;;;;5054641;28;20029;-72
2021/05/22 03:10:13;;;;;;;9.82;4.82;;;14.00;99.90;;;;;;5073121;28;20024;-70
2021/05/22 03:12:39;;;;;;;9.07;4.15;;;14.00;99.90;;;;;;5055248;28;20025;-71
2021/05/22 03:15:07;;;;;;;6.65;4.00;;;14.00;99.90;;;;;;5072846;28;20366;-70
2021/05/22 03:17:34;;;;;;;6.93;3.90;;;14.00;99.90;;;;;;5073148;28;20440;-70
2021/05/22 03:20:00;;;;;;;11.05;3.63;;;14.10;99.90;;;;;;5073424;28;20024;-73
2021/05/22 03:22:26;;;;;;;8.30;2.95;;;14.10;99.90;;;;;;5055067;28;20036;-71
2021/05/22 03:24:52;;;;;;;5.20;3.28;;;14.10;99.90;;;;;;5054976;28;20021;-73
2021/05/22 03:27:18;;;;;;;7.93;3.28;;;14.10;99.90;;;;;;5072958;28;20035;-71
2021/05/22 03:29:44;;;;;;;4.95;2.72;;;14.10;99.90;;;;;;5072939;28;20060;-72
2021/05/22 03:32:10;;;;;;;5.43;2.88;;;14.10;99.90;;;;;;5072966;28;20071;-71
2021/05/22 03:34:36;;;;;;;5.78;2.72;;;14.10;99.90;;;;;;5072978;28;20032;-70
2021/05/22 03:37:02;;;;;;;5.95;3.05;;;14.10;99.90;;;;;;5072916;28;20446;-71
2021/05/22 03:39:28;;;;;;;4.45;2.80;;;14.10;99.90;;;;;;5073193;28;20051;-71
2021/05/22 03:41:53;;;;;;;5.85;3.25;;;14.20;99.90;;;;;;5054927;28;20469;-72
2021/05/22 03:44:19;;;;;;;5.35;3.10;;;14.20;99.90;;;;;;5072876;28;20033;-72
2021/05/22 03:46:45;;;;;;;3.25;2.78;;;14.20;99.90;;;;;;5055811;28;20035;-71
2021/05/22 03:49:11;;;;;;;4.97;3.08;;;14.20;99.90;;;;;;5074086;28;20069;-72
2021/05/22 03:51:37;;;;;;;9.00;2.95;;;14.20;99.90;;;;;;5054780;28;20458;-71
2021/05/22 03:54:04;;;;;;;4.45;3.22;;;14.20;99.90;;;;;;5072740;28;20028;-69
2021/05/22 03:56:30;;;;;;;6.85;3.65;;;14.20;99.90;;;;;;5072737;28;20021;-71
2021/05/22 03:58:56;;;;;;;4.55;2.95;;;14.20;99.90;;;;;;5054550;28;20036;-72
2021/05/22 04:01:22;;;;;;;5.20;2.92;;;14.20;99.90;;;;;;5054766;28;20040;-72
2021/05/22 04:03:48;;;;;;;5.80;3.40;;;14.20;99.90;;;;;;5054661;28;20053;-71
2021/05/22 04:06:13;;;;;;;8.50;2.97;;;14.30;99.90;;;;;;5072602;28;20155;-72
2021/05/22 04:08:39;;;;;;;5.88;3.47;;;14.30;99.90;;;;;;5054546;28;20028;-71
2021/05/22 04:11:05;;;;;;;6.22;3.35;;;14.30;99.90;;;;;;5054536;28;20036;-72
2021/05/22 04:13:31;;;;;;;7.28;3.65;;;14.40;99.90;;;;;;5054612;28;20066;-71
2021/05/22 04:15:57;;;;;;;8.57;3.70;;;14.40;99.90;;;;;;5072262;28;20531;-71
2021/05/22 04:18:23;;;;;;;6.88;2.90;;;14.40;99.90;;;;;;5075131;28;20068;-72
2021/05/22 04:20:48;;;;;;;6.07;3.10;;;14.50;99.90;;;;;;5058337;28;20036;-73
2021/05/22 04:23:14;;;;;;;8.70;3.78;;;14.50;99.90;;;;;;5075984;28;20040;-71
2021/05/22 04:25:40;;;;;;;9.65;2.88;;;14.60;99.90;;;;;;5076216;28;20048;-73
2021/05/22 04:28:07;;;;;;;5.13;2.97;;;14.60;99.90;;;;;;5076081;28;20025;-73
2021/05/22 04:30:33;;;;;;;5.72;3.10;;;14.70;99.90;;;;;;5058119;28;20025;-70
2021/05/22 04:32:59;;;;;;;6.50;3.70;;;14.70;99.90;;;;;;5076066;28;20098;-73
2021/05/22 04:35:25;;;;;;;14.93;4.57;;;14.70;99.90;;;;;;5057943;28;20534;-72
2021/05/22 04:37:50;;;;;;;8.98;4.18;;;14.70;99.90;;;;;;5057924;28;20111;-71
2021/05/22 04:40:16;;;;;;;11.00;4.10;;;14.70;99.90;;;;;;5075916;28;20024;-70
2021/05/22 04:42:42;;;;;;;7.85;4.05;;;14.70;99.90;;;;;;5058018;28;20029;-72
2021/05/22 04:45:08;;;;;;;11.02;3.88;;;14.70;99.90;;;;;;5057997;28;20063;-73
2021/05/22 04:47:35;;;;;;;12.60;3.75;;;14.60;99.90;;;;;;5075738;28;20020;-72
2021/05/22 04:50:02;;;;;;;12.23;3.85;;;14.60;99.90;;;;;;5075613;28;20451;-72
2021/05/22 04:52:28;;;;;;;9.65;3.53;;;14.60;99.90;;;;;;5075736;28;20032;-71
2021/05/22 04:54:54;;;;;;;15.43;4.18;;;14.70;99.90;;;;;;5075552;28;20027;-70
2021/05/22 04:57:20;;;;;;;11.48;5.18;;;14.70;99.90;;;;;;5075660;28;20032;-71
2021/05/22 04:59:46;;;;;;;15.38;5.15;;;14.90;99.90;;;;;;5057519;28;20032;-72
2021/05/22 05:02:12;;;;;;;11.40;3.92;;;15.00;99.90;;;;;;5075889;28;20033;-72
2021/05/22 05:04:38;;;;;;;11.85;4.57;;;15.10;99.90;;;;;;5075488;28;20032;-73
2021/05/22 05:07:05;;;;;;;12.52;4.03;;;15.20;99.90;;;;;;5073919;28;20020;-72
2021/05/22 05:09:34;;;;;;;6.00;3.58;;;15.30;99.90;;;;;;5073965;28;20035;-72
2021/05/22 05:12:05;;;;;;;10.68;3.92;;;15.40;99.90;;;;;;5074077;28;20027;-73
2021/05/22 05:14:31;;;;;;;8.00;4.00;;;15.60;99.90;;;;;;5055910;28;20111;-74
2021/05/22 05:16:57;;;;;;;17.90;4.05;;;15.70;99.90;;;;;;5052444;28;20541;-72
2021/05/22 05:19:24;;;;;;;22.35;3.65;;;15.90;99.90;;;;;;5053979;28;20025;-71
2021/05/22 05:21:51;;;;;;;9.93;3.70;;;16.00;99.90;;;;;;5053966;28;20083;-71
2021/05/22 05:24:17;;;;;;;7.63;3.83;;;16.10;99.90;;;;;;5055427;28;20036;-72
2021/05/22 05:26:43;;;;;;;7.57;3.30;;;16.20;99.90;;;;;;5055104;28;20075;-74
2021/05/22 05:29:08;;;;;;;10.63;3.28;;;16.30;99.90;;;;;;5052818;28;20029;-71
2021/05/22 05:31:34;;;;;;;4.70;3.13;;;16.40;99.60;;;;;;5055070;28;20033;-70
2021/05/22 05:34:00;;;;;;;3.42;2.50;;;16.50;99.80;;;;;;5053688;28;20025;-72
2021/05/22 05:36:26;;;;;;;3.17;2.35;;;16.60;99.20;;;;;;5054938;28;20040;-71
2021/05/22 05:38:52;;;;;;;3.92;2.38;;;16.60;98.30;;;;;;5054828;28;20375;-71
2021/05/22 05:41:18;;;;;;;4.55;2.40;;;16.60;97.80;;;;;;5054831;28;20116;-70
2021/05/22 05:43:44;;;;;;;3.80;2.38;;;16.70;97.30;;;;;;5054520;28;20032;-72
2021/05/22 05:46:10;;;;;;;2.78;2.30;;;16.70;98.70;;;;;;5054792;28;20025;-70
2021/05/22 05:48:36;;;;;;;6.88;1.85;;;16.70;97.60;;;;;;5054539;28;20029;-71
2021/05/22 05:51:02;;;;;;;4.80;2.42;;;16.80;97.60;;;;;;5053362;28;20040;-71
2021/05/22 05:53:27;;;;;;;6.30;2.55;;;16.90;98.70;;;;;;5054904;28;20056;-71
2021/05/22 05:55:53;;;;;;;4.90;2.08;;;16.90;98.90;;;;;;5054623;28;20151;-70
2021/05/22 05:58:19;;;;;;;5.15;2.30;;;17.00;97.40;;;;;;5053262;28;20120;-72
2021/05/22 06:00:45;;;;;;;6.47;2.13;;;17.10;97.00;;;;;;5054767;28;20037;-70
2021/05/22 06:03:11;;;;;;;4.35;2.28;;;17.10;97.70;;;;;;5054407;28;20477;-68
2021/05/22 06:05:37;;;;;;;8.95;1.88;;;17.40;99.90;;;;;;5054407;28;20103;-67
2021/05/22 06:08:03;;;;;;;4.75;1.73;;;17.60;99.90;;;;;;5054348;28;20112;-68
2021/05/22 06:10:29;;;;;;;4.32;2.17;;;17.70;99.90;;;;;;5054049;28;20466;-68
2021/05/22 06:12:57;;;;;;;3.95;1.95;;;18.00;99.90;;;;;;5054359;28;20123;-67
2021/05/22 06:15:29;;;;;;;3.28;2.35;;;18.40;99.90;;;;;;5057114;28;20420;-67
2021/05/22 06:17:55;;;;;;;4.93;2.30;;;18.50;99.90;;;;;;5074951;28;20469;-69
2021/05/22 06:20:21;;;;;;;3.78;2.42;;;18.70;99.90;;;;;;5077309;28;20035;-71
2021/05/22 06:22:47;;;;;;;5.55;2.70;;;18.70;94.70;;;;;;5074052;28;20082;-70
2021/05/22 06:25:13;;;;;;;4.70;2.30;;;18.80;95.80;;;;;;5055950;28;20461;-73
2021/05/22 06:27:39;;;;;;;5.55;2.53;;;18.90;95.20;;;;;;5073894;28;20032;-73
2021/05/22 06:30:08;;;;;;;3.40;2.13;;;19.00;95.00;;;;;;5055724;28;20036;-69
2021/05/22 06:32:34;;;;;;;6.45;2.20;;;19.10;94.70;;;;;;5073789;28;20025;-69
2021/05/22 06:35:00;;;;;;;4.05;2.25;;;19.10;94.00;;;;;;5055880;28;20024;-74
2021/05/22 06:37:27;;;;;;;3.92;1.92;;;19.20;93.90;;;;;;5056600;28;20029;-71
2021/05/22 06:39:53;;;;;;;6.15;2.17;;;19.30;94.20;;;;;;5074203;28;20062;-71
2021/05/22 06:42:20;;;;;;;2.30;1.55;;;19.40;94.10;;;;;;5055720;28;20024;-72
2021/05/22 06:45:02;;;;;;;3.03;1.50;;;19.50;93.30;;;;;;5073435;28;20036;-70
2021/05/22 06:47:28;;;;;;;2.50;1.80;;;19.60;92.20;;;;;;5073517;28;20453;-70
2021/05/22 06:49:54;;;;;;;3.00;1.70;;;19.70;92.10;;;;;;5055401;28;20082;-70
2021/05/22 06:52:20;;;;;;;1.40;1.30;;;19.80;93.20;;;;;;5073642;28;20040;-72
2021/05/22 06:58:08;;;;;;;1.15;1.05;;;19.90;91.70;;;;;;5073700;28;20435;-71
2021/05/22 07:00:33;;;;;;;1.77;1.30;;;20.00;91.40;;;;;;5073413;28;20028;-72
2021/05/22 07:02:59;;;;;;;1.60;0.95;;;20.00;89.10;;;;;;5073100;28;20032;-71
2021/05/22 07:05:25;;;;;;;1.38;1.20;;;20.00;87.50;;;;;;5072929;28;20033;-71
2021/05/22 07:07:51;;;;;;;2.78;0.80;;;20.10;86.80;;;;;;5073229;28;20031;-70
2021/05/22 07:10:17;;;;;;;3.25;1.10;;;20.10;88.00;;;;;;5054916;28;20039;-69
2021/05/22 07:12:43;;;;;;;1.45;1.13;;;20.10;89.80;;;;;;5073442;28;20059;-71
2021/05/22 07:15:10;;;;;;;2.92;1.10;;;20.00;91.30;;;;;;5069027;28;20029;-70
2021/05/22 07:17:36;;;;;;;1.75;1.10;;;20.00;90.10;;;;;;5035355;28;20060;-71
2021/05/22 07:20:03;;;;;;;2.22;1.10;;;20.00;89.00;;;;;;5053006;28;20025;-75
2021/05/22 07:22:30;;;;;;;2.08;1.10;;;19.90;89.40;;;;;;5035019;28;20497;-72
2021/05/22 07:24:56;;;;;;;1.58;1.40;;;19.90;90.10;;;;;;5052982;28;20033;-71
2021/05/22 07:27:22;;;;;;;2.75;1.30;;;19.80;90.30;;;;;;5052647;28;20032;-70
2021/05/22 07:29:50;;;;;;;4.22;1.40;;;20.00;88.80;;;;;;5052883;28;20037;-71
2021/05/22 07:32:16;;;;;;;3.58;1.17;;;20.20;90.60;;;;;;5052992;28;20039;-72
2021/05/22 07:34:42;;;;;;;1.83;1.35;;;20.40;88.80;;;;;;5052909;28;20025;-71
2021/05/22 07:37:08;;;;;;;2.75;1.13;;;20.60;88.80;;;;;;5053103;28;20036;-72
2021/05/22 07:39:34;;;;;;;1.48;1.25;;;20.80;85.70;;;;;;5052871;28;20032;-71
2021/05/22 07:42:00;;;;;;;1.00;0.88;;;20.80;85.30;;;;;;5034915;28;20029;-72
2021/05/22 07:44:26;;;;;;;1.33;0.88;;;21.00;85.30;;;;;;5034882;28;20033;-71
2021/05/22 07:46:52;;;;;;;2.03;0.90;;;21.20;83.50;;;;;;5051611;28;20063;-73
2021/05/22 07:49:18;;;;;;;0.90;0.90;;;21.30;84.20;;;;;;5052219;28;20029;-73
2021/05/22 07:51:45;;;;;;;4.07;1.08;;;21.40;84.20;;;;;;5033474;28;20029;-75
2021/05/22 07:54:11;;;;;;;0.50;0.50;;;21.50;79.70;;;;;;5038018;28;20844;-73
2021/05/22 07:56:37;;;;;;;1.08;0.98;;;21.70;77.50;;;;;;5056245;28;20055;-72
2021/05/22 07:59:03;;;;;;;2.45;0.82;;;21.90;77.90;;;;;;5038208;28;20032;-69
2021/05/22 08:01:30;;;;;;;1.65;0.80;;;;;;;;;;5056143;28;20473;-72
2021/05/22 08:03:56;;;;;;;2.65;0.98;;;22.00;72.90;;;;;;5038298;28;20073;-70
2021/05/22 08:06:21;;;;;;;2.30;1.05;;;22.30;74.40;;;;;;5056418;28;20025;-71
2021/05/22 08:08:47;;;;;;;2.35;1.23;;;22.50;73.20;;;;;;5056421;28;20470;-73
2021/05/22 08:11:14;;;;;;;1.20;0.80;;;22.70;75.00;;;;;;5056490;28;20075;-71
2021/05/22 08:13:41;;;;;;;2.50;0.95;;;22.80;71.10;;;;;;5056428;28;20031;-72
2021/05/22 08:16:06;;;;;;;0.73;0.63;;;22.70;70.80;;;;;;5055919;28;20052;-73
2021/05/22 08:18:33;;;;;;;1.60;0.77;;;22.50;72.10;;;;;;5056616;28;20052;-72
2021/05/22 08:20:59;;;;;;;1.45;1.10;;;22.60;73.30;;;;;;5038454;28;20040;-72
2021/05/22 08:23:25;;;;;;;0.60;0.60;;;22.90;71.40;;;;;;5056052;28;20462;-74
2021/05/22 08:25:51;;;;;;;1.27;0.88;;;23.10;64.00;;;;;;5056224;28;20025;-71
2021/05/22 08:28:21;;;;;;;1.02;0.65;;;23.30;68.50;;;;;;5056087;28;20457;-71
2021/05/22 08:30:50;;;;;;;0.68;0.68;;;23.70;66.50;;;;;;5056224;28;20036;-73
2021/05/22 08:33:16;;;;;;;0.82;0.63;;;23.90;61.90;;;;;;5056106;28;20052;-72
2021/05/22 08:35:42;;;;;;;1.25;0.50;;;23.90;63.00;;;;;;5056104;28;20446;-71
2021/05/22 08:38:09;;;;;;;1.70;0.70;;;24.00;58.10;;;;;;5055949;28;20103;-72
2021/05/22 08:40:35;;;;;;;1.17;0.60;;;24.10;58.90;;;;;;5055790;28;20039;-72
2021/05/22 08:43:01;;;;;;;0.70;0.70;;;24.30;57.90;;;;;;5037788;28;20029;-71
2021/05/22 08:45:29;;;;;;;0.70;0.70;;;24.50;56.80;;;;;;5053807;28;20385;-71
2021/05/22 08:47:56;;;;;;;0.90;0.90;;;24.70;60.10;;;;;;5055836;28;20073;-73
2021/05/22 08:50:22;;;;;;;3.35;1.00;;;24.70;62.20;;;;;;5055466;28;20417;-72
2021/05/22 08:52:50;;;;;;;0.63;0.50;;;24.60;58.70;;;;;;5056344;28;20036;-71
2021/05/22 08:55:16;;;;;;;1.10;0.70;;;24.60;58.50;;;;;;5056579;28;20029;-72
2021/05/22 08:57:42;;;;;;;1.10;0.90;;;24.70;62.00;;;;;;5055521;28;20071;-70
2021/05/22 09:00:12;;;;;;;2.33;0.70;;;24.80;61.50;;;;;;5055275;28;20033;-70
2021/05/22 09:02:39;;;;;;;3.40;0.80;;;24.80;58.30;;;;;;5037597;28;20033;-72
2021/05/22 09:05:22;;;;;;;0.70;0.60;;;25.00;58.20;;;;;;5054247;28;20032;-72
2021/05/22 09:07:49;;;;;;;1.33;0.73;;;25.60;59.80;;;;;;5037479;28;20029;-71
2021/05/22 09:10:28;;;;;;;4.53;0.95;;;25.60;57.20;;;;;;5055317;28;20120;-73
2021/05/22 09:13:12;;;;;;;1.23;0.70;;;25.50;56.50;;;;;;5055379;28;20057;-72
2021/05/22 09:15:41;;;;;;;1.85;0.90;;;25.60;55.00;;;;;;5037240;28;20088;-72
2021/05/22 09:18:14;;;;;;;8.07;1.20;;;26.00;62.40;;;;;;5055265;28;20021;-72
2021/05/22 09:21:00;;;;;;;0.60;0.60;;;26.10;59.10;;;;;;5037339;28;20079;-70
2021/05/22 09:23:32;;;;;;;2.47;0.80;;;26.30;57.60;;;;;;5055521;28;20047;-72
2021/05/22 09:26:06;;;;;;;0.85;0.80;;;26.30;52.80;;;;;;5054987;28;20025;-69
2021/05/22 09:28:38;;;;;;;3.70;0.70;;;26.40;54.90;;;;;;5036161;28;20432;-70
2021/05/22 09:31:08;;;;;;;0.52;0.43;;;26.50;54.80;;;;;;5037214;28;20040;-71
2021/05/22 09:33:35;;;;;;;1.27;0.70;;;26.20;51.20;;;;;;5055056;28;20085;-71
2021/05/22 09:36:08;;;;;;;0.68;0.65;;;26.20;50.10;;;;;;5055154;28;20108;-71
2021/05/22 09:38:57;;;;;;;2.15;0.60;;;26.70;53.50;;;;;;5036731;28;20032;-71
2021/05/22 09:41:25;;;;;;;0.70;0.70;;;26.40;50.80;;;;;;5041133;28;20037;-72
2021/05/22 09:44:18;;;;;;;0.60;0.60;;;26.70;54.50;;;;;;5054092;28;20121;-73
2021/05/22 09:46:43;;;;;;;0.73;0.50;;;26.90;50.40;;;;;;5054821;28;20461;-72
2021/05/22 09:49:10;;;;;;;2.22;0.68;;;27.00;50.00;;;;;;5054597;28;20131;-73
2021/05/22 09:51:57;;;;;;;0.50;0.50;;;26.90;50.70;;;;;;5054715;28;20036;-73
2021/05/22 09:54:44;;;;;;;0.55;0.40;;;27.30;51.20;;;;;;5054445;28;20045;-72
2021/05/22 09:57:11;;;;;;;1.60;0.45;;;;;;;;;;5054499;28;20109;-71
2021/05/22 09:59:38;;;;;;;2.03;0.57;;;;;;;;;;5054522;28;20029;-73
2021/05/22 10:02:05;;;;;;;2.00;0.50;;;;;;;;;;5054453;28;20366;-72
2021/05/22 10:04:30;;;;;;;1.02;0.50;;;28.10;49.20;;;;;;5036466;28;20021;-70
2021/05/22 10:06:57;;;;;;;0.70;0.70;;;28.30;46.90;;;;;;5054634;28;20048;-73
2021/05/22 10:09:25;;;;;;;1.77;0.93;;;28.50;47.20;;;;;;5036240;28;20385;-71
2021/05/22 10:12:19;;;;;;;1.80;0.93;;;28.60;46.30;;;;;;5054168;28;20032;-71
2021/05/22 10:14:46;;;;;;;0.70;0.57;;;28.60;46.60;;;;;;4937234;28;20042;-74
2021/05/22 10:17:13;;;;;;;1.02;0.80;;;28.40;48.30;;;;;;4953065;29;20059;-72
2021/05/22 10:19:39;;;;;;;4.18;0.63;;;28.40;48.70;;;;;;4937573;29;20412;-71
2021/05/22 10:22:07;;;;;;;0.90;0.70;;;28.10;46.80;;;;;;4950604;28;20106;-72
2021/05/22 10:24:34;;;;;;;0.60;0.60;;;28.20;52.80;;;;;;4936027;29;20054;-73
2021/05/22 10:27:00;;;;;;;2.08;0.80;;;;;;;;;;4951903;29;20031;-71
2021/05/22 10:29:28;;;;;;;0.63;0.63;;;;;;;;;;4937445;29;20059;-72
2021/05/22 10:31:55;;;;;;;2.40;0.60;;;;;;;;;;4936403;29;20432;-72
2021/05/22 10:34:24;;;;;;;0.60;0.60;;;30.10;46.70;;;;;;4951549;29;20027;-72
2021/05/22 10:36:59;;;;;;;0.77;0.75;;;30.50;45.50;;;;;;4952800;28;20035;-72
2021/05/22 10:39:45;;;;;;;1.05;0.80;;;30.50;46.60;;;;;;4952811;29;20503;-73
2021/05/22 10:42:11;;;;;;;1.25;0.70;;;;;;;;;;4952036;29;20073;-70
2021/05/22 10:44:39;;;;;;;0.50;0.50;;;;;;;;;;4951268;29;20031;-71
2021/05/22 10:47:17;;;;;;;1.75;0.70;;;;;;;;;;4951775;29;20492;-74
2021/05/22 10:49:55;;;;;;;3.00;0.88;;;;;;;;;;4953218;29;20051;-73
2021/05/22 10:52:23;;;;;;;1.20;0.70;;;;;;;;;;5052635;28;20037;-71
2021/05/22 10:55:08;;;;;;;0.77;0.55;;;;;;;;;;5035004;28;20025;-74
2021/05/22 10:57:46;;;;;;;2.38;0.60;;;;;;;;;;5034158;28;20501;-72
2021/05/22 11:00:16;;;;;;;0.68;0.68;;;;;;;;;;5052203;28;20043;-73
2021/05/22 11:02:45;;;;;;;0.70;0.70;;;;;;;;;;5034707;28;20021;-71
2021/05/22 11:08:10;;;;;;;0.90;0.90;;;;;;;;;;5053016;28;20525;-70
2021/05/22 11:10:38;;;;;;;0.60;0.60;;;;;;;;;;5052679;28;20035;-72
2021/05/22 11:13:06;;;;;;;0.63;0.60;;;;;;;;;;5053184;28;20114;-73
2021/05/22 11:15:46;;;;;;;0.85;0.75;;;;;;;;;;5031547;28;20053;-73
2021/05/22 11:18:14;;;;;;;0.60;0.57;;;;;;;;;;5031499;28;20025;-70
2021/05/22 11:20:42;;;;;;;0.60;0.60;;;;;;;;;;5032232;28;20034;-73
2021/05/22 11:23:08;;;;;;;1.02;0.80;;;;;;;;;;5032316;28;20059;-71
2021/05/22 11:25:52;;;;;;;0.90;0.80;;;29.90;43.70;;;;;;5031859;28;20072;-70
2021/05/22 11:28:21;;;;;;;0.70;0.70;;;29.60;44.80;;;;;;5032313;28;20032;-74
2021/05/22 11:30:56;;;;;;;0.85;0.60;;;29.10;42.80;;;;;;5032681;28;20419;-72
2021/05/22 11:33:22;;;;;;;0.60;0.60;;;29.10;47.40;;;;;;5034982;28;20524;-70
2021/05/22 11:35:57;;;;;;;2.45;0.88;;;29.40;43.60;;;;;;5031804;28;20033;-72
2021/05/22 11:38:23;;;;;;;0.70;0.60;;;29.80;45.30;;;;;;5033088;28;20505;-70
2021/05/22 11:40:50;;;;;;;0.90;0.80;;;;;;;;;;5032971;28;20450;-71
2021/05/22 11:43:18;;;;;;;1.10;0.75;;;;;;;;;;5032960;28;20512;-70
2021/05/22 11:45:45;;;;;;;3.05;0.70;;;;;;;;;;5032969;28;20017;-70
2021/05/22 11:48:25;;;;;;;1.33;0.93;;;;;;;;;;5031571;28;20075;-71
2021/05/22 11:51:04;;;;;;;0.90;0.85;;;;;;;;;;5033016;28;20032;-71
2021/05/22 11:53:31;;;;;;;0.98;0.90;;;;;;;;;;5032863;28;20478;-72
2021/05/22 11:56:14;;;;;;;2.60;0.90;;;;;;;;;;5032855;28;20025;-70
2021/05/22 11:58:51;;;;;;;0.70;0.70;;;;;;;;;;5032543;28;20436;-70
2021/05/22 12:01:18;;;;;;;1.08;0.70;;;;;;;;;;5031143;28;20112;-69
2021/05/22 12:03:46;;;;;;;3.92;0.90;;;;;;;;;;5032529;28;20072;-71
2021/05/22 12:06:22;;;;;;;2.65;0.98;;;;;;;;;;5031325;28;20029;-70
2021/05/22 12:08:57;;;;;;;1.75;0.85;;;;;;;;;;5031281;28;20052;-74
2021/05/22 12:11:28;;;;;;;3.10;0.80;;;;;;;;;;5031089;28;20056;-70
2021/05/22 12:13:58;;;;;;;3.72;0.68;;;;;;;;;;5032689;28;20030;-71
2021/05/22 12:16:25;;;;;;;0.63;0.63;;;;;;;;;;5044766;28;20037;-70
2021/05/22 12:18:52;;;;;;;0.60;0.60;;;;;;;;;;5052545;28;20532;-71
2021/05/22 12:21:26;;;;;;;2.33;0.90;;;;;;;;;;5052448;28;20158;-71
2021/05/22 12:23:53;;;;;;;0.68;0.68;;;;;;;;;;5052506;28;20017;-72
2021/05/22 12:26:19;;;;;;;0.50;0.50;;;;;;;;;;5034485;28;20108;-71
2021/05/22 12:28:46;;;;;;;0.70;0.70;;;;;;;;;;5052328;28;20025;-71
2021/05/22 12:31:12;;;;;;;0.90;0.90;;;;;;;;;;5052337;28;20053;-70
2021/05/22 12:33:39;;;;;;;2.33;0.50;;;;;;;;;;5052359;28;20017;-70
2021/05/22 12:36:09;;;;;;;0.82;0.82;;;;;;;;;;5034494;28;20025;-71
2021/05/22 12:38:46;;;;;;;1.17;0.65;;;;;;;;;;5053424;28;20024;-71
2021/05/22 12:41:13;;;;;;;2.90;0.77;;;;;;;;;;5055966;28;20021;-71
2021/05/22 12:43:42;;;;;;;0.70;0.70;;;;;;;;;;5055960;28;20131;-70
2021/05/22 12:46:21;;;;;;;0.60;0.60;;;;;;;;;;5055965;28;20112;-69
2021/05/22 12:48:48;;;;;;;1.27;0.90;;;;;;;;;;5055795;28;20108;-70
2021/05/22 12:51:21;;;;;;;1.35;0.77;;;;;;;;;;5037876;28;20056;-72
2021/05/22 12:53:47;;;;;;;0.80;0.80;;;;;;;;;;5055805;28;20021;-71
2021/05/22 12:56:13;;;;;;;1.45;0.80;;;;;;;;;;5056062;28;20140;-72
2021/05/22 12:58:40;;;;;;;1.42;0.80;;;;;;;;;;5037685;28;20037;-70
2021/05/22 13:01:20;;;;;;;0.82;0.80;;;;;;;;;;5037680;28;20512;-71
2021/05/22 13:03:49;;;;;;;0.77;0.70;;;;;;;;;;5037636;28;20028;-70
2021/05/22 13:06:25;;;;;;;0.65;0.65;;;;;;;;;;5055482;28;20025;-72
2021/05/22 13:08:51;;;;;;;0.65;0.60;;;;;;;;;;5037424;28;20025;-71
2021/05/22 13:11:18;;;;;;;2.22;0.60;;;;;;;;;;5055373;28;20028;-70
2021/05/22 13:13:44;;;;;;;0.73;0.73;;;;;;;;;;5055423;28;20108;-72
2021/05/22 13:16:12;;;;;;;1.20;0.60;;;;;;;;;;5054938;28;20045;-69
2021/05/22 13:18:39;;;;;;;1.40;0.75;;;;;;;;;;5055236;28;20144;-69